sensor_id;sensor_type;location;lat;lon;timestamp;temperature;humidity
68139;DHT22;54940;50.842;4.410;2022-07-10T00:01:57;17.40;91.60
68139;DHT22;54940;50.842;4.410;2022-07-10T00:04:22;17.30;92.00
68139;DHT22;54940;50.842;4.410;2022-07-10T00:06:48;17.30;92.20
68139;DHT22;54940;50.842;4.410;2022-07-10T00:09:14;17.30;91.90
68139;DHT22;54940;50.842;4.410;2022-07-10T00:11:41;17.30;91.90
68139;DHT22;54940;50.842;4.410;2022-07-10T00:14:06;17.40;92.00
68139;DHT22;54940;50.842;4.410;2022-07-10T00:16:32;17.30;92.00
68139;DHT22;54940;50.842;4.410;2022-07-10T00:18:58;17.20;92.00
68139;DHT22;54940;50.842;4.410;2022-07-10T00:21:23;17.20;92.20
68139;DHT22;54940;50.842;4.410;2022-07-10T00:23:49;17.20;92.10
68139;DHT22;54940;50.842;4.410;2022-07-10T00:26:15;17.20;91.90
68139;DHT22;54940;50.842;4.410;2022-07-10T00:28:40;17.20;91.80
68139;DHT22;54940;50.842;4.410;2022-07-10T00:31:06;17.20;91.90
68139;DHT22;54940;50.842;4.410;2022-07-10T00:33:32;17.10;92.10
68139;DHT22;54940;50.842;4.410;2022-07-10T00:35:58;17.00;92.50
68139;DHT22;54940;50.842;4.410;2022-07-10T00:38:24;17.00;92.20
68139;DHT22;54940;50.842;4.410;2022-07-10T00:40:50;17.00;92.20
68139;DHT22;54940;50.842;4.410;2022-07-10T00:43:16;17.00;92.50
68139;DHT22;54940;50.842;4.410;2022-07-10T00:45:41;17.10;92.20
68139;DHT22;54940;50.842;4.410;2022-07-10T00:48:07;17.10;92.40
68139;DHT22;54940;50.842;4.410;2022-07-10T00:50:34;17.10;92.50
68139;DHT22;54940;50.842;4.410;2022-07-10T00:53:01;16.90;92.50
68139;DHT22;54940;50.842;4.410;2022-07-10T00:55:29;17.10;92.40
68139;DHT22;54940;50.842;4.410;2022-07-10T00:57:55;17.00;92.20
68139;DHT22;54940;50.842;4.410;2022-07-10T01:00:21;17.10;92.20
68139;DHT22;54940;50.842;4.410;2022-07-10T01:02:47;17.10;92.20
68139;DHT22;54940;50.842;4.410;2022-07-10T01:05:13;17.10;92.30
68139;DHT22;54940;50.842;4.410;2022-07-10T01:07:39;17.00;92.30
68139;DHT22;54940;50.842;4.410;2022-07-10T01:10:05;16.90;92.70
68139;DHT22;54940;50.842;4.410;2022-07-10T01:12:31;16.80;92.70
68139;DHT22;54940;50.842;4.410;2022-07-10T01:14:58;16.80;92.60
68139;DHT22;54940;50.842;4.410;2022-07-10T01:17:24;16.70;93.00
68139;DHT22;54940;50.842;4.410;2022-07-10T01:19:50;16.70;92.70
68139;DHT22;54940;50.842;4.410;2022-07-10T01:22:16;16.80;92.60
68139;DHT22;54940;50.842;4.410;2022-07-10T01:24:42;16.90;92.70
68139;DHT22;54940;50.842;4.410;2022-07-10T01:27:07;16.70;92.60
68139;DHT22;54940;50.842;4.410;2022-07-10T01:29:34;16.80;93.00
68139;DHT22;54940;50.842;4.410;2022-07-10T01:32:01;16.80;92.80
68139;DHT22;54940;50.842;4.410;2022-07-10T01:34:27;16.80;92.90
68139;DHT22;54940;50.842;4.410;2022-07-10T01:36:54;16.70;92.90
68139;DHT22;54940;50.842;4.410;2022-07-10T01:39:19;16.70;93.00
68139;DHT22;54940;50.842;4.410;2022-07-10T01:41:45;16.70;92.60
68139;DHT22;54940;50.842;4.410;2022-07-10T01:44:11;16.70;93.10
68139;DHT22;54940;50.842;4.410;2022-07-10T01:46:46;16.70;92.80
68139;DHT22;54940;50.842;4.410;2022-07-10T01:49:13;16.80;92.50
68139;DHT22;54940;50.842;4.410;2022-07-10T01:51:39;16.60;93.20
68139;DHT22;54940;50.842;4.410;2022-07-10T01:54:05;16.60;93.00
68139;DHT22;54940;50.842;4.410;2022-07-10T01:56:33;16.60;92.90
68139;DHT22;54940;50.842;4.410;2022-07-10T01:58:59;16.50;93.00
68139;DHT22;54940;50.842;4.410;2022-07-10T02:01:26;16.60;93.00
68139;DHT22;54940;50.842;4.410;2022-07-10T02:03:53;16.60;92.90
68139;DHT22;54940;50.842;4.410;2022-07-10T02:06:37;16.60;92.90
68139;DHT22;54940;50.842;4.410;2022-07-10T02:09:02;16.50;93.10
68139;DHT22;54940;50.842;4.410;2022-07-10T02:11:28;16.50;92.90
68139;DHT22;54940;50.842;4.410;2022-07-10T02:13:54;16.50;93.00
68139;DHT22;54940;50.842;4.410;2022-07-10T02:16:19;16.60;93.10
68139;DHT22;54940;50.842;4.410;2022-07-10T02:18:45;16.50;92.90
68139;DHT22;54940;50.842;4.410;2022-07-10T02:21:10;16.50;93.00
68139;DHT22;54940;50.842;4.410;2022-07-10T02:23:36;16.50;93.00
68139;DHT22;54940;50.842;4.410;2022-07-10T02:26:04;16.50;93.00
68139;DHT22;54940;50.842;4.410;2022-07-10T02:28:30;16.50;92.90
68139;DHT22;54940;50.842;4.410;2022-07-10T02:30:56;16.60;92.90
68139;DHT22;54940;50.842;4.410;2022-07-10T02:33:21;16.50;92.70
68139;DHT22;54940;50.842;4.410;2022-07-10T02:35:47;16.50;92.80
68139;DHT22;54940;50.842;4.410;2022-07-10T02:38:13;16.60;92.90
68139;DHT22;54940;50.842;4.410;2022-07-10T02:40:38;16.50;92.90
68139;DHT22;54940;50.842;4.410;2022-07-10T02:43:04;16.50;93.20
68139;DHT22;54940;50.842;4.410;2022-07-10T02:45:30;16.50;93.00
68139;DHT22;54940;50.842;4.410;2022-07-10T02:47:55;16.50;93.20
68139;DHT22;54940;50.842;4.410;2022-07-10T02:50:21;16.50;93.10
68139;DHT22;54940;50.842;4.410;2022-07-10T02:52:46;16.40;93.20
68139;DHT22;54940;50.842;4.410;2022-07-10T02:55:12;16.40;93.10
68139;DHT22;54940;50.842;4.410;2022-07-10T02:57:38;16.40;93.10
68139;DHT22;54940;50.842;4.410;2022-07-10T03:00:04;16.40;92.90
68139;DHT22;54940;50.842;4.410;2022-07-10T03:02:30;16.30;93.40
68139;DHT22;54940;50.842;4.410;2022-07-10T03:04:55;16.20;93.80
68139;DHT22;54940;50.842;4.410;2022-07-10T03:07:21;16.20;94.20
68139;DHT22;54940;50.842;4.410;2022-07-10T03:09:46;16.30;93.60
68139;DHT22;54940;50.842;4.410;2022-07-10T03:12:12;16.30;93.40
68139;DHT22;54940;50.842;4.410;2022-07-10T03:14:37;16.30;93.50
68139;DHT22;54940;50.842;4.410;2022-07-10T03:17:03;16.20;93.50
68139;DHT22;54940;50.842;4.410;2022-07-10T03:19:29;16.20;93.50
68139;DHT22;54940;50.842;4.410;2022-07-10T03:21:55;16.10;93.70
68139;DHT22;54940;50.842;4.410;2022-07-10T03:24:20;16.10;93.90
68139;DHT22;54940;50.842;4.410;2022-07-10T03:26:46;16.10;93.80
68139;DHT22;54940;50.842;4.410;2022-07-10T03:29:12;16.20;93.70
68139;DHT22;54940;50.842;4.410;2022-07-10T03:31:37;16.10;93.60
68139;DHT22;54940;50.842;4.410;2022-07-10T03:34:03;16.20;93.80
68139;DHT22;54940;50.842;4.410;2022-07-10T03:36:28;16.20;93.40
68139;DHT22;54940;50.842;4.410;2022-07-10T03:38:54;16.30;93.70
68139;DHT22;54940;50.842;4.410;2022-07-10T03:41:20;16.30;93.30
68139;DHT22;54940;50.842;4.410;2022-07-10T03:43:45;16.30;93.40
68139;DHT22;54940;50.842;4.410;2022-07-10T03:46:11;16.30;93.40
68139;DHT22;54940;50.842;4.410;2022-07-10T03:48:36;16.20;93.60
68139;DHT22;54940;50.842;4.410;2022-07-10T03:51:02;16.20;93.50
68139;DHT22;54940;50.842;4.410;2022-07-10T03:53:28;16.30;93.70
68139;DHT22;54940;50.842;4.410;2022-07-10T03:55:54;16.30;93.50
68139;DHT22;54940;50.842;4.410;2022-07-10T03:58:20;16.20;93.70
68139;DHT22;54940;50.842;4.410;2022-07-10T04:00:45;16.20;93.50
68139;DHT22;54940;50.842;4.410;2022-07-10T04:03:11;16.20;93.70
68139;DHT22;54940;50.842;4.410;2022-07-10T04:05:39;16.20;93.70
68139;DHT22;54940;50.842;4.410;2022-07-10T04:08:05;16.20;93.90
68139;DHT22;54940;50.842;4.410;2022-07-10T04:10:31;16.10;94.30
68139;DHT22;54940;50.842;4.410;2022-07-10T04:12:57;16.10;94.50
68139;DHT22;54940;50.842;4.410;2022-07-10T04:15:23;16.10;94.00
68139;DHT22;54940;50.842;4.410;2022-07-10T04:17:49;16.10;93.80
68139;DHT22;54940;50.842;4.410;2022-07-10T04:20:17;16.10;94.10
68139;DHT22;54940;50.842;4.410;2022-07-10T04:22:43;16.20;94.30
68139;DHT22;54940;50.842;4.410;2022-07-10T04:25:09;16.20;94.10
68139;DHT22;54940;50.842;4.410;2022-07-10T04:27:35;16.20;93.90
68139;DHT22;54940;50.842;4.410;2022-07-10T04:30:01;16.20;94.10
68139;DHT22;54940;50.842;4.410;2022-07-10T04:32:27;16.20;94.40
68139;DHT22;54940;50.842;4.410;2022-07-10T04:34:54;16.20;94.30
68139;DHT22;54940;50.842;4.410;2022-07-10T04:37:20;16.20;94.10
68139;DHT22;54940;50.842;4.410;2022-07-10T04:39:46;16.30;94.30
68139;DHT22;54940;50.842;4.410;2022-07-10T04:42:11;16.40;93.90
68139;DHT22;54940;50.842;4.410;2022-07-10T04:44:37;16.40;93.80
68139;DHT22;54940;50.842;4.410;2022-07-10T04:47:04;16.60;94.00
68139;DHT22;54940;50.842;4.410;2022-07-10T04:49:31;16.60;93.70
68139;DHT22;54940;50.842;4.410;2022-07-10T04:51:57;16.60;93.70
68139;DHT22;54940;50.842;4.410;2022-07-10T04:54:22;16.60;93.50
68139;DHT22;54940;50.842;4.410;2022-07-10T04:56:48;16.60;93.60
68139;DHT22;54940;50.842;4.410;2022-07-10T04:59:14;16.60;93.80
68139;DHT22;54940;50.842;4.410;2022-07-10T05:01:40;16.50;93.70
68139;DHT22;54940;50.842;4.410;2022-07-10T05:04:06;16.50;93.70
68139;DHT22;54940;50.842;4.410;2022-07-10T05:06:31;16.50;93.90
68139;DHT22;54940;50.842;4.410;2022-07-10T05:08:57;16.50;93.70
68139;DHT22;54940;50.842;4.410;2022-07-10T05:11:23;16.50;93.90
68139;DHT22;54940;50.842;4.410;2022-07-10T05:13:49;16.40;93.70
68139;DHT22;54940;50.842;4.410;2022-07-10T05:16:16;16.50;94.00
68139;DHT22;54940;50.842;4.410;2022-07-10T05:18:41;16.60;94.00
68139;DHT22;54940;50.842;4.410;2022-07-10T05:21:07;16.70;94.10
68139;DHT22;54940;50.842;4.410;2022-07-10T05:23:33;16.70;94.60
68139;DHT22;54940;50.842;4.410;2022-07-10T05:25:59;16.80;94.20
68139;DHT22;54940;50.842;4.410;2022-07-10T05:28:25;17.30;94.00
68139;DHT22;54940;50.842;4.410;2022-07-10T05:30:51;17.90;93.10
68139;DHT22;54940;50.842;4.410;2022-07-10T05:33:17;18.50;92.40
68139;DHT22;54940;50.842;4.410;2022-07-10T05:35:43;19.30;91.40
68139;DHT22;54940;50.842;4.410;2022-07-10T05:38:09;19.90;90.00
68139;DHT22;54940;50.842;4.410;2022-07-10T05:40:34;20.40;90.00
68139;DHT22;54940;50.842;4.410;2022-07-10T05:43:00;20.80;86.90
68139;DHT22;54940;50.842;4.410;2022-07-10T05:45:26;21.30;86.10
68139;DHT22;54940;50.842;4.410;2022-07-10T05:47:51;21.60;84.60
68139;DHT22;54940;50.842;4.410;2022-07-10T05:50:17;21.90;83.70
68139;DHT22;54940;50.842;4.410;2022-07-10T05:52:43;22.20;81.20
68139;DHT22;54940;50.842;4.410;2022-07-10T05:55:09;22.00;80.60
68139;DHT22;54940;50.842;4.410;2022-07-10T05:57:35;21.80;82.50
68139;DHT22;54940;50.842;4.410;2022-07-10T06:00:01;21.40;82.10
68139;DHT22;54940;50.842;4.410;2022-07-10T06:02:29;20.90;83.70
68139;DHT22;54940;50.842;4.410;2022-07-10T06:04:55;20.40;84.70
68139;DHT22;54940;50.842;4.410;2022-07-10T06:07:20;20.00;86.30
68139;DHT22;54940;50.842;4.410;2022-07-10T06:09:46;19.60;88.50
68139;DHT22;54940;50.842;4.410;2022-07-10T06:12:12;19.30;89.80
68139;DHT22;54940;50.842;4.410;2022-07-10T06:14:37;19.10;90.30
68139;DHT22;54940;50.842;4.410;2022-07-10T06:17:03;19.00;90.60
68139;DHT22;54940;50.842;4.410;2022-07-10T06:19:29;18.90;90.70
68139;DHT22;54940;50.842;4.410;2022-07-10T06:21:55;18.70;90.80
68139;DHT22;54940;50.842;4.410;2022-07-10T06:24:39;18.60;90.70
68139;DHT22;54940;50.842;4.410;2022-07-10T06:27:05;18.60;91.50
68139;DHT22;54940;50.842;4.410;2022-07-10T06:29:30;18.60;91.70
68139;DHT22;54940;50.842;4.410;2022-07-10T06:31:56;18.50;91.40
68139;DHT22;54940;50.842;4.410;2022-07-10T06:34:22;18.50;91.90
68139;DHT22;54940;50.842;4.410;2022-07-10T06:36:48;18.60;91.70
68139;DHT22;54940;50.842;4.410;2022-07-10T06:39:13;18.60;91.50
68139;DHT22;54940;50.842;4.410;2022-07-10T06:41:39;18.60;92.20
68139;DHT22;54940;50.842;4.410;2022-07-10T06:44:05;18.60;92.50
68139;DHT22;54940;50.842;4.410;2022-07-10T06:46:31;18.60;92.40
68139;DHT22;54940;50.842;4.410;2022-07-10T06:48:58;18.60;92.50
68139;DHT22;54940;50.842;4.410;2022-07-10T06:51:24;18.50;92.40
68139;DHT22;54940;50.842;4.410;2022-07-10T06:53:50;18.50;92.20
68139;DHT22;54940;50.842;4.410;2022-07-10T06:56:16;18.60;92.00
68139;DHT22;54940;50.842;4.410;2022-07-10T06:58:42;18.60;92.70
68139;DHT22;54940;50.842;4.410;2022-07-10T07:01:08;18.50;92.50
68139;DHT22;54940;50.842;4.410;2022-07-10T07:03:33;18.50;92.30
68139;DHT22;54940;50.842;4.410;2022-07-10T07:05:59;18.40;93.00
68139;DHT22;54940;50.842;4.410;2022-07-10T07:08:25;18.30;93.20
68139;DHT22;54940;50.842;4.410;2022-07-10T07:10:51;18.30;93.40
68139;DHT22;54940;50.842;4.410;2022-07-10T07:13:16;18.30;93.20
68139;DHT22;54940;50.842;4.410;2022-07-10T07:15:42;18.20;93.20
68139;DHT22;54940;50.842;4.410;2022-07-10T07:18:13;18.20;93.00
68139;DHT22;54940;50.842;4.410;2022-07-10T07:20:41;18.30;93.10
68139;DHT22;54940;50.842;4.410;2022-07-10T07:23:26;18.30;92.80
68139;DHT22;54940;50.842;4.410;2022-07-10T07:25:52;18.40;93.20
68139;DHT22;54940;50.842;4.410;2022-07-10T07:28:19;18.50;93.10
68139;DHT22;54940;50.842;4.410;2022-07-10T07:30:49;18.50;92.60
68139;DHT22;54940;50.842;4.410;2022-07-10T07:33:15;18.50;93.50
68139;DHT22;54940;50.842;4.410;2022-07-10T07:35:41;18.60;93.30
68139;DHT22;54940;50.842;4.410;2022-07-10T07:38:08;18.70;93.40
68139;DHT22;54940;50.842;4.410;2022-07-10T07:40:33;18.70;92.60
68139;DHT22;54940;50.842;4.410;2022-07-10T07:42:59;18.90;93.10
68139;DHT22;54940;50.842;4.410;2022-07-10T07:45:25;19.00;93.50
68139;DHT22;54940;50.842;4.410;2022-07-10T07:47:53;19.10;93.30
68139;DHT22;54940;50.842;4.410;2022-07-10T07:50:24;19.20;92.60
68139;DHT22;54940;50.842;4.410;2022-07-10T07:52:54;19.30;92.70
68139;DHT22;54940;50.842;4.410;2022-07-10T07:55:21;19.50;92.00
68139;DHT22;54940;50.842;4.410;2022-07-10T07:57:47;19.60;91.80
68139;DHT22;54940;50.842;4.410;2022-07-10T08:00:16;19.80;92.10
68139;DHT22;54940;50.842;4.410;2022-07-10T08:02:42;20.00;91.00
68139;DHT22;54940;50.842;4.410;2022-07-10T08:05:09;20.00;90.80
68139;DHT22;54940;50.842;4.410;2022-07-10T08:07:43;20.20;91.60
68139;DHT22;54940;50.842;4.410;2022-07-10T08:10:14;20.40;90.20
68139;DHT22;54940;50.842;4.410;2022-07-10T08:12:40;20.50;90.50
68139;DHT22;54940;50.842;4.410;2022-07-10T08:15:08;20.60;90.60
68139;DHT22;54940;50.842;4.410;2022-07-10T08:17:34;20.70;90.10
68139;DHT22;54940;50.842;4.410;2022-07-10T08:20:01;21.00;90.70
68139;DHT22;54940;50.842;4.410;2022-07-10T08:22:26;21.10;88.30
68139;DHT22;54940;50.842;4.410;2022-07-10T08:24:52;20.90;88.30
68139;DHT22;54940;50.842;4.410;2022-07-10T08:27:18;21.00;89.40
68139;DHT22;54940;50.842;4.410;2022-07-10T08:29:43;21.00;89.90
68139;DHT22;54940;50.842;4.410;2022-07-10T08:32:09;21.20;88.50
68139;DHT22;54940;50.842;4.410;2022-07-10T08:34:36;21.30;88.30
68139;DHT22;54940;50.842;4.410;2022-07-10T08:37:02;21.30;88.80
68139;DHT22;54940;50.842;4.410;2022-07-10T08:39:27;21.30;88.90
68139;DHT22;54940;50.842;4.410;2022-07-10T08:41:54;21.30;87.80
68139;DHT22;54940;50.842;4.410;2022-07-10T08:44:20;21.20;87.70
68139;DHT22;54940;50.842;4.410;2022-07-10T08:46:47;21.20;89.60
68139;DHT22;54940;50.842;4.410;2022-07-10T08:49:12;21.30;88.60
68139;DHT22;54940;50.842;4.410;2022-07-10T08:51:54;21.40;88.90
68139;DHT22;54940;50.842;4.410;2022-07-10T08:54:22;21.50;86.70
68139;DHT22;54940;50.842;4.410;2022-07-10T08:56:48;21.70;89.30
68139;DHT22;54940;50.842;4.410;2022-07-10T08:59:15;21.90;87.80
68139;DHT22;54940;50.842;4.410;2022-07-10T09:01:42;22.30;87.90
68139;DHT22;54940;50.842;4.410;2022-07-10T09:04:19;22.50;87.20
68139;DHT22;54940;50.842;4.410;2022-07-10T09:06:45;22.60;84.30
68139;DHT22;54940;50.842;4.410;2022-07-10T09:09:10;22.80;85.60
68139;DHT22;54940;50.842;4.410;2022-07-10T09:11:38;22.90;85.30
68139;DHT22;54940;50.842;4.410;2022-07-10T09:14:07;22.50;82.80
68139;DHT22;54940;50.842;4.410;2022-07-10T09:16:35;22.40;85.00
68139;DHT22;54940;50.842;4.410;2022-07-10T09:21:42;22.20;85.70
68139;DHT22;54940;50.842;4.410;2022-07-10T09:24:08;22.40;85.10
68139;DHT22;54940;50.842;4.410;2022-07-10T09:26:36;22.40;84.50
68139;DHT22;54940;50.842;4.410;2022-07-10T09:29:12;22.60;87.20
68139;DHT22;54940;50.842;4.410;2022-07-10T09:31:53;23.00;82.50
68139;DHT22;54940;50.842;4.410;2022-07-10T09:34:39;23.00;82.80
68139;DHT22;54940;50.842;4.410;2022-07-10T09:37:21;22.50;79.70
68139;DHT22;54940;50.842;4.410;2022-07-10T09:40:00;22.20;84.50
68139;DHT22;54940;50.842;4.410;2022-07-10T09:42:34;22.50;86.10
68139;DHT22;54940;50.842;4.410;2022-07-10T09:45:16;22.90;82.00
68139;DHT22;54940;50.842;4.410;2022-07-10T09:47:54;22.80;78.80
68139;DHT22;54940;50.842;4.410;2022-07-10T09:50:30;22.80;84.10
68139;DHT22;54940;50.842;4.410;2022-07-10T09:53:02;22.90;82.10
68139;DHT22;54940;50.842;4.410;2022-07-10T09:55:30;22.90;86.00
68139;DHT22;54940;50.842;4.410;2022-07-10T09:58:01;23.00;81.60
68139;DHT22;54940;50.842;4.410;2022-07-10T10:00:32;22.80;82.40
68139;DHT22;54940;50.842;4.410;2022-07-10T10:03:01;23.00;85.80
68139;DHT22;54940;50.842;4.410;2022-07-10T10:05:45;23.10;82.40
68139;DHT22;54940;50.842;4.410;2022-07-10T10:11:01;22.90;83.00
68139;DHT22;54940;50.842;4.410;2022-07-10T10:13:28;22.80;84.60
68139;DHT22;54940;50.842;4.410;2022-07-10T10:15:56;22.70;86.00
68139;DHT22;54940;50.842;4.410;2022-07-10T10:18:24;22.70;81.60
68139;DHT22;54940;50.842;4.410;2022-07-10T10:20:52;22.80;84.10
68139;DHT22;54940;50.842;4.410;2022-07-10T10:23:20;23.00;83.80
68139;DHT22;54940;50.842;4.410;2022-07-10T10:25:47;22.90;84.20
68139;DHT22;54940;50.842;4.410;2022-07-10T10:28:14;22.80;83.80
68139;DHT22;54940;50.842;4.410;2022-07-10T10:30:43;22.90;81.80
68139;DHT22;54940;50.842;4.410;2022-07-10T10:35:58;23.50;84.50
68139;DHT22;54940;50.842;4.410;2022-07-10T10:38:24;23.20;81.90
68139;DHT22;54940;50.842;4.410;2022-07-10T10:40:50;23.20;81.90
68139;DHT22;54940;50.842;4.410;2022-07-10T10:43:23;23.20;84.10
68139;DHT22;54940;50.842;4.410;2022-07-10T10:45:50;23.40;80.40
68139;DHT22;54940;50.842;4.410;2022-07-10T10:48:17;23.20;82.90
68139;DHT22;54940;50.842;4.410;2022-07-10T10:50:51;23.00;82.10
68139;DHT22;54940;50.842;4.410;2022-07-10T10:58:41;23.50;84.20
68139;DHT22;54940;50.842;4.410;2022-07-10T11:06:47;23.80;81.80
68139;DHT22;54940;50.842;4.410;2022-07-10T11:09:29;23.90;85.00
68139;DHT22;54940;50.842;4.410;2022-07-10T11:12:02;24.00;81.10
68139;DHT22;54940;50.842;4.410;2022-07-10T11:14:29;24.30;86.70
68139;DHT22;54940;50.842;4.410;2022-07-10T11:16:56;24.50;82.70
68139;DHT22;54940;50.842;4.410;2022-07-10T11:19:27;24.60;81.30
68139;DHT22;54940;50.842;4.410;2022-07-10T11:25:03;24.50;79.90
68139;DHT22;54940;50.842;4.410;2022-07-10T11:27:39;24.20;78.20
68139;DHT22;54940;50.842;4.410;2022-07-10T11:30:07;23.90;81.00
68139;DHT22;54940;50.842;4.410;2022-07-10T11:32:33;23.70;82.10
68139;DHT22;54940;50.842;4.410;2022-07-10T11:34:59;23.80;82.40
68139;DHT22;54940;50.842;4.410;2022-07-10T11:37:25;23.90;80.40
68139;DHT22;54940;50.842;4.410;2022-07-10T11:40:08;24.00;79.80
68139;DHT22;54940;50.842;4.410;2022-07-10T11:42:54;24.10;82.20
68139;DHT22;54940;50.842;4.410;2022-07-10T11:45:27;24.30;80.20
68139;DHT22;54940;50.842;4.410;2022-07-10T11:47:54;24.30;81.20
68139;DHT22;54940;50.842;4.410;2022-07-10T11:50:20;24.40;82.10
68139;DHT22;54940;50.842;4.410;2022-07-10T11:52:46;24.50;81.60
68139;DHT22;54940;50.842;4.410;2022-07-10T11:55:23;24.50;82.30
68139;DHT22;54940;50.842;4.410;2022-07-10T11:57:49;24.30;80.80
68139;DHT22;54940;50.842;4.410;2022-07-10T12:00:29;24.40;76.90
68139;DHT22;54940;50.842;4.410;2022-07-10T12:02:56;24.30;83.20
68139;DHT22;54940;50.842;4.410;2022-07-10T12:05:36;24.50;86.70
68139;DHT22;54940;50.842;4.410;2022-07-10T12:08:03;24.70;78.90
68139;DHT22;54940;50.842;4.410;2022-07-10T12:10:30;25.20;85.00
68139;DHT22;54940;50.842;4.410;2022-07-10T12:13:11;25.20;77.40
68139;DHT22;54940;50.842;4.410;2022-07-10T12:15:45;25.00;80.70
68139;DHT22;54940;50.842;4.410;2022-07-10T12:18:19;24.80;82.30
68139;DHT22;54940;50.842;4.410;2022-07-10T12:20:46;24.70;81.10
68139;DHT22;54940;50.842;4.410;2022-07-10T12:23:17;24.80;79.10
68139;DHT22;54940;50.842;4.410;2022-07-10T12:25:44;24.80;78.80
68139;DHT22;54940;50.842;4.410;2022-07-10T12:28:10;25.00;81.50
68139;DHT22;54940;50.842;4.410;2022-07-10T12:30:44;24.80;78.80
68139;DHT22;54940;50.842;4.410;2022-07-10T12:33:19;24.80;81.10
68139;DHT22;54940;50.842;4.410;2022-07-10T12:35:48;24.90;81.00
68139;DHT22;54940;50.842;4.410;2022-07-10T12:38:19;24.70;78.90
68139;DHT22;54940;50.842;4.410;2022-07-10T12:40:46;24.70;80.00
68139;DHT22;54940;50.842;4.410;2022-07-10T12:43:12;24.80;80.40
68139;DHT22;54940;50.842;4.410;2022-07-10T12:45:38;24.80;79.90
68139;DHT22;54940;50.842;4.410;2022-07-10T12:48:05;24.90;80.00
68139;DHT22;54940;50.842;4.410;2022-07-10T12:50:33;24.80;79.10
68139;DHT22;54940;50.842;4.410;2022-07-10T12:53:09;24.80;80.80
68139;DHT22;54940;50.842;4.410;2022-07-10T12:55:37;24.90;78.50
68139;DHT22;54940;50.842;4.410;2022-07-10T12:58:05;24.80;77.80
68139;DHT22;54940;50.842;4.410;2022-07-10T13:00:35;24.80;80.10
68139;DHT22;54940;50.842;4.410;2022-07-10T13:05:36;25.00;79.60
68139;DHT22;54940;50.842;4.410;2022-07-10T13:10:33;25.20;79.40
68139;DHT22;54940;50.842;4.410;2022-07-10T13:12:59;25.20;78.70
68139;DHT22;54940;50.842;4.410;2022-07-10T13:15:26;25.20;79.10
68139;DHT22;54940;50.842;4.410;2022-07-10T13:17:52;25.10;79.50
68139;DHT22;54940;50.842;4.410;2022-07-10T13:20:18;25.10;76.50
68139;DHT22;54940;50.842;4.410;2022-07-10T13:22:43;24.90;77.50
68139;DHT22;54940;50.842;4.410;2022-07-10T13:25:10;24.90;78.70
68139;DHT22;54940;50.842;4.410;2022-07-10T13:27:35;24.70;79.30
68139;DHT22;54940;50.842;4.410;2022-07-10T13:30:03;24.60;78.30
68139;DHT22;54940;50.842;4.410;2022-07-10T13:32:29;24.50;79.00
68139;DHT22;54940;50.842;4.410;2022-07-10T13:34:55;24.40;76.20
68139;DHT22;54940;50.842;4.410;2022-07-10T13:37:20;24.50;80.70
68139;DHT22;54940;50.842;4.410;2022-07-10T13:39:46;24.70;78.80
68139;DHT22;54940;50.842;4.410;2022-07-10T13:42:12;25.00;80.00
68139;DHT22;54940;50.842;4.410;2022-07-10T13:44:37;25.10;78.50
68139;DHT22;54940;50.842;4.410;2022-07-10T13:47:03;25.10;78.10
68139;DHT22;54940;50.842;4.410;2022-07-10T13:49:29;25.00;76.20
68139;DHT22;54940;50.842;4.410;2022-07-10T13:51:55;24.80;76.00
68139;DHT22;54940;50.842;4.410;2022-07-10T13:54:21;24.60;79.50
68139;DHT22;54940;50.842;4.410;2022-07-10T13:56:47;24.80;79.20
68139;DHT22;54940;50.842;4.410;2022-07-10T13:59:13;25.20;76.30
68139;DHT22;54940;50.842;4.410;2022-07-10T14:01:38;25.30;75.80
68139;DHT22;54940;50.842;4.410;2022-07-10T14:04:04;25.30;77.60
68139;DHT22;54940;50.842;4.410;2022-07-10T14:06:30;25.40;73.20
68139;DHT22;54940;50.842;4.410;2022-07-10T14:08:56;25.50;77.60
68139;DHT22;54940;50.842;4.410;2022-07-10T14:11:21;25.40;75.70
68139;DHT22;54940;50.842;4.410;2022-07-10T14:13:47;25.30;74.80
68139;DHT22;54940;50.842;4.410;2022-07-10T14:16:13;25.40;77.10
68139;DHT22;54940;50.842;4.410;2022-07-10T14:18:38;25.60;75.60
68139;DHT22;54940;50.842;4.410;2022-07-10T14:21:06;25.70;75.50
68139;DHT22;54940;50.842;4.410;2022-07-10T14:23:39;25.50;74.90
68139;DHT22;54940;50.842;4.410;2022-07-10T14:26:07;25.30;78.30
68139;DHT22;54940;50.842;4.410;2022-07-10T14:28:33;25.20;76.80
68139;DHT22;54940;50.842;4.410;2022-07-10T14:31:01;25.20;77.60
68139;DHT22;54940;50.842;4.410;2022-07-10T14:33:32;25.30;76.50
68139;DHT22;54940;50.842;4.410;2022-07-10T14:35:58;25.40;78.10
68139;DHT22;54940;50.842;4.410;2022-07-10T14:38:24;25.60;77.20
68139;DHT22;54940;50.842;4.410;2022-07-10T14:40:50;25.50;77.30
68139;DHT22;54940;50.842;4.410;2022-07-10T14:43:19;25.40;77.10
68139;DHT22;54940;50.842;4.410;2022-07-10T14:45:45;25.40;74.80
68139;DHT22;54940;50.842;4.410;2022-07-10T14:48:10;25.40;74.70
68139;DHT22;54940;50.842;4.410;2022-07-10T14:50:36;25.30;75.90
68139;DHT22;54940;50.842;4.410;2022-07-10T14:53:02;25.10;73.20
68139;DHT22;54940;50.842;4.410;2022-07-10T14:55:28;25.00;75.80
68139;DHT22;54940;50.842;4.410;2022-07-10T14:57:53;25.10;75.40
68139;DHT22;54940;50.842;4.410;2022-07-10T15:00:21;25.10;75.30
68139;DHT22;54940;50.842;4.410;2022-07-10T15:02:47;25.00;77.20
68139;DHT22;54940;50.842;4.410;2022-07-10T15:05:13;24.70;74.50
68139;DHT22;54940;50.842;4.410;2022-07-10T15:07:39;24.80;75.90
68139;DHT22;54940;50.842;4.410;2022-07-10T15:10:05;24.60;76.20
68139;DHT22;54940;50.842;4.410;2022-07-10T15:12:34;24.60;77.10
68139;DHT22;54940;50.842;4.410;2022-07-10T15:15:00;24.70;78.00
68139;DHT22;54940;50.842;4.410;2022-07-10T15:17:26;24.70;77.10
68139;DHT22;54940;50.842;4.410;2022-07-10T15:19:51;24.50;77.80
68139;DHT22;54940;50.842;4.410;2022-07-10T15:22:17;24.30;75.10
68139;DHT22;54940;50.842;4.410;2022-07-10T15:24:43;24.30;77.40
68139;DHT22;54940;50.842;4.410;2022-07-10T15:27:10;24.50;79.10
68139;DHT22;54940;50.842;4.410;2022-07-10T15:29:36;24.70;76.30
68139;DHT22;54940;50.842;4.410;2022-07-10T15:32:01;25.00;75.50
68139;DHT22;54940;50.842;4.410;2022-07-10T15:34:27;25.00;78.10
68139;DHT22;54940;50.842;4.410;2022-07-10T15:36:52;24.90;75.40
68139;DHT22;54940;50.842;4.410;2022-07-10T15:39:18;24.80;74.80
68139;DHT22;54940;50.842;4.410;2022-07-10T15:41:45;25.00;75.90
68139;DHT22;54940;50.842;4.410;2022-07-10T15:44:12;25.10;75.00
68139;DHT22;54940;50.842;4.410;2022-07-10T15:46:38;25.10;73.70
68139;DHT22;54940;50.842;4.410;2022-07-10T15:49:04;24.90;76.30
68139;DHT22;54940;50.842;4.410;2022-07-10T15:51:30;24.80;75.20
68139;DHT22;54940;50.842;4.410;2022-07-10T15:53:56;24.70;77.30
68139;DHT22;54940;50.842;4.410;2022-07-10T15:56:22;24.60;77.80
68139;DHT22;54940;50.842;4.410;2022-07-10T15:58:48;24.50;76.00